sensor_id;sensor_type;location;lat;lon;timestamp;temperature;humidity
29917;DHT22;16786;49.466;11.068;2023-08-17T00:00:24;22.30;99.90
29917;DHT22;16786;49.466;11.068;2023-08-17T00:02:52;22.30;99.90
29917;DHT22;16786;49.466;11.068;2023-08-17T00:05:19;22.30;99.90
29917;DHT22;16786;49.466;11.068;2023-08-17T00:07:47;22.30;99.90
29917;DHT22;16786;49.466;11.068;2023-08-17T00:10:14;22.30;99.90
29917;DHT22;16786;49.466;11.068;2023-08-17T00:12:42;22.40;99.90
29917;DHT22;16786;49.466;11.068;2023-08-17T00:15:09;22.40;99.90
29917;DHT22;16786;49.466;11.068;2023-08-17T00:17:37;22.40;99.90
29917;DHT22;16786;49.466;11.068;2023-08-17T00:20:05;22.40;99.90
29917;DHT22;16786;49.466;11.068;2023-08-17T00:22:32;22.40;99.90
29917;DHT22;16786;49.466;11.068;2023-08-17T00:25:00;22.40;99.90
29917;DHT22;16786;49.466;11.068;2023-08-17T00:27:27;22.40;99.90
29917;DHT22;16786;49.466;11.068;2023-08-17T00:29:54;22.40;99.90
29917;DHT22;16786;49.466;11.068;2023-08-17T00:32:25;22.30;99.90
29917;DHT22;16786;49.466;11.068;2023-08-17T00:34:52;22.40;99.90
29917;DHT22;16786;49.466;11.068;2023-08-17T00:37:20;22.40;99.90
29917;DHT22;16786;49.466;11.068;2023-08-17T00:39:52;22.30;99.90
29917;DHT22;16786;49.466;11.068;2023-08-17T00:42:19;22.30;99.90
29917;DHT22;16786;49.466;11.068;2023-08-17T00:44:46;22.30;99.90
29917;DHT22;16786;49.466;11.068;2023-08-17T00:47:14;22.20;99.90
29917;DHT22;16786;49.466;11.068;2023-08-17T00:49:42;22.20;99.90
29917;DHT22;16786;49.466;11.068;2023-08-17T00:52:09;22.20;99.90
29917;DHT22;16786;49.466;11.068;2023-08-17T00:54:37;22.20;99.90
29917;DHT22;16786;49.466;11.068;2023-08-17T00:57:05;22.20;99.90
29917;DHT22;16786;49.466;11.068;2023-08-17T00:59:33;22.10;99.90
29917;DHT22;16786;49.466;11.068;2023-08-17T01:02:03;22.00;99.90
29917;DHT22;16786;49.466;11.068;2023-08-17T01:04:32;22.00;99.90
29917;DHT22;16786;49.466;11.068;2023-08-17T01:06:59;22.00;99.90
29917;DHT22;16786;49.466;11.068;2023-08-17T01:09:26;21.80;99.90
29917;DHT22;16786;49.466;11.068;2023-08-17T01:14:55;21.80;99.90
29917;DHT22;16786;49.466;11.068;2023-08-17T01:17:54;21.80;99.90
29917;DHT22;16786;49.466;11.068;2023-08-17T01:20:24;21.70;99.90
29917;DHT22;16786;49.466;11.068;2023-08-17T01:22:55;21.60;99.90
29917;DHT22;16786;49.466;11.068;2023-08-17T01:25:24;21.60;99.90
29917;DHT22;16786;49.466;11.068;2023-08-17T01:27:52;21.60;99.90
29917;DHT22;16786;49.466;11.068;2023-08-17T01:30:19;21.60;99.90
29917;DHT22;16786;49.466;11.068;2023-08-17T01:32:53;21.60;99.90
29917;DHT22;16786;49.466;11.068;2023-08-17T01:35:31;21.60;99.90
29917;DHT22;16786;49.466;11.068;2023-08-17T01:38:07;21.60;99.90
29917;DHT22;16786;49.466;11.068;2023-08-17T01:40:36;21.60;99.90
29917;DHT22;16786;49.466;11.068;2023-08-17T01:43:04;21.60;99.90
29917;DHT22;16786;49.466;11.068;2023-08-17T01:45:32;21.60;99.90
29917;DHT22;16786;49.466;11.068;2023-08-17T01:48:01;21.60;99.90
29917;DHT22;16786;49.466;11.068;2023-08-17T01:50:30;21.60;99.90
29917;DHT22;16786;49.466;11.068;2023-08-17T01:52:57;21.60;99.90
29917;DHT22;16786;49.466;11.068;2023-08-17T01:55:25;21.60;99.90
29917;DHT22;16786;49.466;11.068;2023-08-17T01:57:54;21.60;99.90
29917;DHT22;16786;49.466;11.068;2023-08-17T02:00:21;21.70;99.90
29917;DHT22;16786;49.466;11.068;2023-08-17T02:02:49;21.70;99.90
29917;DHT22;16786;49.466;11.068;2023-08-17T02:05:16;21.70;99.90
29917;DHT22;16786;49.466;11.068;2023-08-17T02:07:45;21.70;99.90
29917;DHT22;16786;49.466;11.068;2023-08-17T02:10:13;21.70;99.90
29917;DHT22;16786;49.466;11.068;2023-08-17T02:12:41;21.70;99.90
29917;DHT22;16786;49.466;11.068;2023-08-17T02:15:08;21.80;99.90
29917;DHT22;16786;49.466;11.068;2023-08-17T02:17:36;21.70;99.90
29917;DHT22;16786;49.466;11.068;2023-08-17T02:20:03;21.70;99.90
29917;DHT22;16786;49.466;11.068;2023-08-17T02:22:31;21.80;99.90
29917;DHT22;16786;49.466;11.068;2023-08-17T02:24:59;21.70;99.90
29917;DHT22;16786;49.466;11.068;2023-08-17T02:27:26;21.70;99.90
29917;DHT22;16786;49.466;11.068;2023-08-17T02:29:54;21.70;99.90
29917;DHT22;16786;49.466;11.068;2023-08-17T02:32:21;21.70;99.90
29917;DHT22;16786;49.466;11.068;2023-08-17T02:34:48;21.70;99.90
29917;DHT22;16786;49.466;11.068;2023-08-17T02:37:15;21.70;99.90
29917;DHT22;16786;49.466;11.068;2023-08-17T02:39:43;21.70;99.90
29917;DHT22;16786;49.466;11.068;2023-08-17T02:42:10;21.70;99.90
29917;DHT22;16786;49.466;11.068;2023-08-17T02:44:38;21.70;99.90
29917;DHT22;16786;49.466;11.068;2023-08-17T02:47:05;21.70;99.90
29917;DHT22;16786;49.466;11.068;2023-08-17T02:49:32;21.70;99.90
29917;DHT22;16786;49.466;11.068;2023-08-17T02:52:00;21.70;99.90
29917;DHT22;16786;49.466;11.068;2023-08-17T02:54:27;21.70;99.90
29917;DHT22;16786;49.466;11.068;2023-08-17T02:56:55;21.60;99.90
29917;DHT22;16786;49.466;11.068;2023-08-17T02:59:22;21.60;99.90
29917;DHT22;16786;49.466;11.068;2023-08-17T03:01:49;21.60;99.90
29917;DHT22;16786;49.466;11.068;2023-08-17T03:04:17;21.60;99.90
29917;DHT22;16786;49.466;11.068;2023-08-17T03:06:44;21.60;99.90
29917;DHT22;16786;49.466;11.068;2023-08-17T03:09:11;21.60;99.90
29917;DHT22;16786;49.466;11.068;2023-08-17T03:11:38;21.50;99.90
29917;DHT22;16786;49.466;11.068;2023-08-17T03:14:06;21.50;99.90
29917;DHT22;16786;49.466;11.068;2023-08-17T03:16:33;21.60;99.90
29917;DHT22;16786;49.466;11.068;2023-08-17T03:19:01;21.60;99.90
29917;DHT22;16786;49.466;11.068;2023-08-17T03:21:28;21.60;99.90
29917;DHT22;16786;49.466;11.068;2023-08-17T03:23:56;21.60;99.90
29917;DHT22;16786;49.466;11.068;2023-08-17T03:26:23;21.60;99.90
29917;DHT22;16786;49.466;11.068;2023-08-17T03:28:51;21.60;99.90
29917;DHT22;16786;49.466;11.068;2023-08-17T03:31:20;21.50;99.90
29917;DHT22;16786;49.466;11.068;2023-08-17T03:33:48;21.50;99.90
29917;DHT22;16786;49.466;11.068;2023-08-17T03:36:16;21.50;99.90
29917;DHT22;16786;49.466;11.068;2023-08-17T03:38:44;21.50;99.90
29917;DHT22;16786;49.466;11.068;2023-08-17T03:41:11;21.50;99.90
29917;DHT22;16786;49.466;11.068;2023-08-17T03:43:39;21.60;99.90
29917;DHT22;16786;49.466;11.068;2023-08-17T03:46:06;21.50;99.90
29917;DHT22;16786;49.466;11.068;2023-08-17T03:48:34;21.50;99.90
29917;DHT22;16786;49.466;11.068;2023-08-17T03:51:02;21.50;99.90
29917;DHT22;16786;49.466;11.068;2023-08-17T03:53:29;21.50;99.90
29917;DHT22;16786;49.466;11.068;2023-08-17T03:55:58;21.40;99.90
29917;DHT22;16786;49.466;11.068;2023-08-17T03:58:25;21.40;99.90
29917;DHT22;16786;49.466;11.068;2023-08-17T04:00:53;21.40;99.90
29917;DHT22;16786;49.466;11.068;2023-08-17T04:03:27;21.30;99.90
29917;DHT22;16786;49.466;11.068;2023-08-17T04:05:54;21.30;99.90
29917;DHT22;16786;49.466;11.068;2023-08-17T04:08:22;21.20;99.90
29917;DHT22;16786;49.466;11.068;2023-08-17T04:10:49;21.20;99.90
29917;DHT22;16786;49.466;11.068;2023-08-17T04:13:16;21.10;99.90
29917;DHT22;16786;49.466;11.068;2023-08-17T04:15:44;21.00;99.90
29917;DHT22;16786;49.466;11.068;2023-08-17T04:18:11;21.00;99.90
29917;DHT22;16786;49.466;11.068;2023-08-17T04:20:39;21.00;99.90
29917;DHT22;16786;49.466;11.068;2023-08-17T04:23:06;20.90;99.90
29917;DHT22;16786;49.466;11.068;2023-08-17T04:25:33;20.90;99.90
29917;DHT22;16786;49.466;11.068;2023-08-17T04:28:01;20.80;99.90
29917;DHT22;16786;49.466;11.068;2023-08-17T04:30:28;20.80;99.90
29917;DHT22;16786;49.466;11.068;2023-08-17T04:32:59;20.80;99.90
29917;DHT22;16786;49.466;11.068;2023-08-17T04:35:27;20.80;99.90
29917;DHT22;16786;49.466;11.068;2023-08-17T04:37:55;20.80;99.90
29917;DHT22;16786;49.466;11.068;2023-08-17T04:40:22;20.80;99.90
29917;DHT22;16786;49.466;11.068;2023-08-17T04:42:50;20.90;99.90
29917;DHT22;16786;49.466;11.068;2023-08-17T04:45:17;20.80;99.90
29917;DHT22;16786;49.466;11.068;2023-08-17T04:47:46;20.90;99.90
29917;DHT22;16786;49.466;11.068;2023-08-17T04:50:14;20.90;99.90
29917;DHT22;16786;49.466;11.068;2023-08-17T04:52:44;21.00;99.90
29917;DHT22;16786;49.466;11.068;2023-08-17T04:55:13;21.00;99.90
29917;DHT22;16786;49.466;11.068;2023-08-17T04:57:42;21.00;99.90
29917;DHT22;16786;49.466;11.068;2023-08-17T05:00:12;21.00;99.90
29917;DHT22;16786;49.466;11.068;2023-08-17T05:02:41;21.00;99.90
29917;DHT22;16786;49.466;11.068;2023-08-17T05:05:10;21.00;99.90
29917;DHT22;16786;49.466;11.068;2023-08-17T05:07:37;21.00;99.90
29917;DHT22;16786;49.466;11.068;2023-08-17T05:10:05;21.00;99.90
29917;DHT22;16786;49.466;11.068;2023-08-17T05:12:36;21.00;99.90
29917;DHT22;16786;49.466;11.068;2023-08-17T05:15:04;21.10;99.90
29917;DHT22;16786;49.466;11.068;2023-08-17T05:17:31;21.10;99.90
29917;DHT22;16786;49.466;11.068;2023-08-17T05:19:59;21.20;99.90
29917;DHT22;16786;49.466;11.068;2023-08-17T05:22:27;21.30;99.90
29917;DHT22;16786;49.466;11.068;2023-08-17T05:24:54;21.30;99.90
29917;DHT22;16786;49.466;11.068;2023-08-17T05:27:22;21.40;99.90
29917;DHT22;16786;49.466;11.068;2023-08-17T05:29:49;21.40;99.90
29917;DHT22;16786;49.466;11.068;2023-08-17T05:32:17;21.50;99.90
29917;DHT22;16786;49.466;11.068;2023-08-17T05:34:47;21.50;99.90
29917;DHT22;16786;49.466;11.068;2023-08-17T05:37:14;21.60;99.90
29917;DHT22;16786;49.466;11.068;2023-08-17T05:39:42;21.70;99.90
29917;DHT22;16786;49.466;11.068;2023-08-17T05:42:10;21.80;99.90
29917;DHT22;16786;49.466;11.068;2023-08-17T05:44:37;21.80;99.90
29917;DHT22;16786;49.466;11.068;2023-08-17T05:47:04;21.80;99.90
29917;DHT22;16786;49.466;11.068;2023-08-17T05:49:32;21.90;99.90
29917;DHT22;16786;49.466;11.068;2023-08-17T05:51:59;22.00;99.90
29917;DHT22;16786;49.466;11.068;2023-08-17T05:54:26;22.10;99.90
29917;DHT22;16786;49.466;11.068;2023-08-17T05:56:54;22.10;99.90
29917;DHT22;16786;49.466;11.068;2023-08-17T05:59:21;22.20;99.90
29917;DHT22;16786;49.466;11.068;2023-08-17T06:01:48;22.20;99.90
29917;DHT22;16786;49.466;11.068;2023-08-17T06:04:16;22.30;99.90
29917;DHT22;16786;49.466;11.068;2023-08-17T06:06:43;22.40;99.90
29917;DHT22;16786;49.466;11.068;2023-08-17T06:09:10;22.40;99.90
29917;DHT22;16786;49.466;11.068;2023-08-17T06:11:37;22.50;99.90
29917;DHT22;16786;49.466;11.068;2023-08-17T06:14:05;22.50;99.90
29917;DHT22;16786;49.466;11.068;2023-08-17T06:16:33;22.60;99.90
29917;DHT22;16786;49.466;11.068;2023-08-17T06:19:00;22.70;99.90
29917;DHT22;16786;49.466;11.068;2023-08-17T06:21:28;22.70;99.90
29917;DHT22;16786;49.466;11.068;2023-08-17T06:23:55;22.80;99.90
29917;DHT22;16786;49.466;11.068;2023-08-17T06:26:22;22.90;99.90
29917;DHT22;16786;49.466;11.068;2023-08-17T06:28:49;22.90;99.90
29917;DHT22;16786;49.466;11.068;2023-08-17T06:31:17;22.90;99.90
29917;DHT22;16786;49.466;11.068;2023-08-17T06:33:45;23.00;99.90
29917;DHT22;16786;49.466;11.068;2023-08-17T06:36:12;23.10;99.90
29917;DHT22;16786;49.466;11.068;2023-08-17T06:38:43;23.20;99.90
29917;DHT22;16786;49.466;11.068;2023-08-17T06:41:10;23.30;99.90
29917;DHT22;16786;49.466;11.068;2023-08-17T06:43:38;23.30;99.90
29917;DHT22;16786;49.466;11.068;2023-08-17T06:46:05;23.40;99.90
29917;DHT22;16786;49.466;11.068;2023-08-17T06:48:32;23.50;99.90
29917;DHT22;16786;49.466;11.068;2023-08-17T06:51:00;23.70;99.90
29917;DHT22;16786;49.466;11.068;2023-08-17T06:53:27;23.80;99.90
29917;DHT22;16786;49.466;11.068;2023-08-17T06:55:54;23.90;99.90
29917;DHT22;16786;49.466;11.068;2023-08-17T06:58:22;23.90;99.90
29917;DHT22;16786;49.466;11.068;2023-08-17T07:00:49;23.90;99.90
29917;DHT22;16786;49.466;11.068;2023-08-17T07:03:16;24.00;99.90
29917;DHT22;16786;49.466;11.068;2023-08-17T07:05:44;24.10;99.90
29917;DHT22;16786;49.466;11.068;2023-08-17T07:08:11;24.20;99.90
29917;DHT22;16786;49.466;11.068;2023-08-17T07:10:38;24.20;99.90
29917;DHT22;16786;49.466;11.068;2023-08-17T07:13:06;24.30;99.90
29917;DHT22;16786;49.466;11.068;2023-08-17T07:15:33;24.40;99.90
29917;DHT22;16786;49.466;11.068;2023-08-17T07:18:01;24.50;99.90
29917;DHT22;16786;49.466;11.068;2023-08-17T07:20:28;24.60;99.90
29917;DHT22;16786;49.466;11.068;2023-08-17T07:22:56;24.70;99.90
29917;DHT22;16786;49.466;11.068;2023-08-17T07:25:23;24.80;99.90
29917;DHT22;16786;49.466;11.068;2023-08-17T07:27:51;24.80;99.90
29917;DHT22;16786;49.466;11.068;2023-08-17T07:30:18;24.80;99.90
29917;DHT22;16786;49.466;11.068;2023-08-17T07:32:46;24.90;99.90
29917;DHT22;16786;49.466;11.068;2023-08-17T07:35:13;25.00;99.90
29917;DHT22;16786;49.466;11.068;2023-08-17T07:37:40;25.10;99.90
29917;DHT22;16786;49.466;11.068;2023-08-17T07:40:09;25.10;99.90
29917;DHT22;16786;49.466;11.068;2023-08-17T07:42:37;25.10;99.90
29917;DHT22;16786;49.466;11.068;2023-08-17T07:45:05;25.20;99.90
29917;DHT22;16786;49.466;11.068;2023-08-17T07:47:35;25.30;99.90
29917;DHT22;16786;49.466;11.068;2023-08-17T07:50:05;25.40;99.90
29917;DHT22;16786;49.466;11.068;2023-08-17T07:52:33;25.50;99.90
29917;DHT22;16786;49.466;11.068;2023-08-17T07:55:00;25.60;99.90
29917;DHT22;16786;49.466;11.068;2023-08-17T07:57:30;25.70;99.90
29917;DHT22;16786;49.466;11.068;2023-08-17T07:59:58;25.80;99.90
29917;DHT22;16786;49.466;11.068;2023-08-17T08:02:25;26.00;99.90
29917;DHT22;16786;49.466;11.068;2023-08-17T08:04:52;26.00;99.90
29917;DHT22;16786;49.466;11.068;2023-08-17T08:07:20;26.10;99.90
29917;DHT22;16786;49.466;11.068;2023-08-17T08:09:47;26.20;99.90
29917;DHT22;16786;49.466;11.068;2023-08-17T08:12:15;26.30;99.90
29917;DHT22;16786;49.466;11.068;2023-08-17T08:14:42;26.40;99.90
29917;DHT22;16786;49.466;11.068;2023-08-17T08:17:09;26.50;99.90
29917;DHT22;16786;49.466;11.068;2023-08-17T08:19:36;26.60;99.90
29917;DHT22;16786;49.466;11.068;2023-08-17T08:22:04;26.70;99.90
29917;DHT22;16786;49.466;11.068;2023-08-17T08:24:31;26.80;99.90
29917;DHT22;16786;49.466;11.068;2023-08-17T08:27:05;26.90;99.90
29917;DHT22;16786;49.466;11.068;2023-08-17T08:29:33;26.90;99.90
29917;DHT22;16786;49.466;11.068;2023-08-17T08:32:00;27.00;99.90
29917;DHT22;16786;49.466;11.068;2023-08-17T08:34:30;27.10;99.90
29917;DHT22;16786;49.466;11.068;2023-08-17T08:36:57;27.20;99.90
29917;DHT22;16786;49.466;11.068;2023-08-17T08:39:27;27.40;99.90
29917;DHT22;16786;49.466;11.068;2023-08-17T08:41:55;27.40;99.90
29917;DHT22;16786;49.466;11.068;2023-08-17T08:44:23;27.40;99.90
29917;DHT22;16786;49.466;11.068;2023-08-17T08:46:54;27.40;99.90
29917;DHT22;16786;49.466;11.068;2023-08-17T08:49:23;27.50;99.90
29917;DHT22;16786;49.466;11.068;2023-08-17T08:51:51;27.60;99.90
29917;DHT22;16786;49.466;11.068;2023-08-17T08:54:25;27.70;99.90
29917;DHT22;16786;49.466;11.068;2023-08-17T08:57:02;27.80;99.90
29917;DHT22;16786;49.466;11.068;2023-08-17T08:59:31;27.90;99.90
29917;DHT22;16786;49.466;11.068;2023-08-17T09:01:58;28.00;99.90
29917;DHT22;16786;49.466;11.068;2023-08-17T09:04:27;28.10;99.90
29917;DHT22;16786;49.466;11.068;2023-08-17T09:06:55;28.20;99.90
29917;DHT22;16786;49.466;11.068;2023-08-17T09:09:23;28.30;99.90
29917;DHT22;16786;49.466;11.068;2023-08-17T09:11:56;28.40;99.90
29917;DHT22;16786;49.466;11.068;2023-08-17T09:14:23;28.30;99.90
29917;DHT22;16786;49.466;11.068;2023-08-17T09:16:51;28.40;99.90
29917;DHT22;16786;49.466;11.068;2023-08-17T09:19:19;28.50;99.90
29917;DHT22;16786;49.466;11.068;2023-08-17T09:21:47;28.60;99.90
29917;DHT22;16786;49.466;11.068;2023-08-17T09:24:17;28.70;99.90
29917;DHT22;16786;49.466;11.068;2023-08-17T09:26:44;28.80;99.90
29917;DHT22;16786;49.466;11.068;2023-08-17T09:29:19;28.90;99.90
29917;DHT22;16786;49.466;11.068;2023-08-17T09:31:47;29.10;99.90
29917;DHT22;16786;49.466;11.068;2023-08-17T09:34:15;29.10;99.90
29917;DHT22;16786;49.466;11.068;2023-08-17T09:36:46;29.20;99.90
29917;DHT22;16786;49.466;11.068;2023-08-17T09:39:17;29.40;99.90
29917;DHT22;16786;49.466;11.068;2023-08-17T09:41:45;29.40;99.90
29917;DHT22;16786;49.466;11.068;2023-08-17T09:44:12;29.60;99.90
29917;DHT22;16786;49.466;11.068;2023-08-17T09:46:43;29.70;99.90
29917;DHT22;16786;49.466;11.068;2023-08-17T09:49:10;29.90;99.90
29917;DHT22;16786;49.466;11.068;2023-08-17T09:51:38;30.00;99.90
29917;DHT22;16786;49.466;11.068;2023-08-17T09:54:22;30.30;99.90
29917;DHT22;16786;49.466;11.068;2023-08-17T09:56:58;30.40;99.90
29917;DHT22;16786;49.466;11.068;2023-08-17T09:59:26;30.40;99.90
29917;DHT22;16786;49.466;11.068;2023-08-17T10:01:54;30.40;99.90
29917;DHT22;16786;49.466;11.068;2023-08-17T10:04:24;30.50;99.90
29917;DHT22;16786;49.466;11.068;2023-08-17T10:07:00;30.50;99.90
29917;DHT22;16786;49.466;11.068;2023-08-17T10:09:39;30.70;99.90
29917;DHT22;16786;49.466;11.068;2023-08-17T10:12:12;30.80;99.90
29917;DHT22;16786;49.466;11.068;2023-08-17T10:14:52;30.70;99.90
29917;DHT22;16786;49.466;11.068;2023-08-17T10:17:26;30.70;99.90
29917;DHT22;16786;49.466;11.068;2023-08-17T10:19:57;30.90;99.90
29917;DHT22;16786;49.466;11.068;2023-08-17T10:22:36;31.20;99.90
29917;DHT22;16786;49.466;11.068;2023-08-17T10:25:11;31.40;99.90
29917;DHT22;16786;49.466;11.068;2023-08-17T10:27:44;31.60;99.90
29917;DHT22;16786;49.466;11.068;2023-08-17T10:30:12;31.70;99.90
29917;DHT22;16786;49.466;11.068;2023-08-17T10:32:40;31.70;99.90
29917;DHT22;16786;49.466;11.068;2023-08-17T10:35:13;31.90;99.90
29917;DHT22;16786;49.466;11.068;2023-08-17T10:37:41;32.20;99.90
29917;DHT22;16786;49.466;11.068;2023-08-17T10:40:09;32.20;99.90
29917;DHT22;16786;49.466;11.068;2023-08-17T10:42:41;32.30;99.90
29917;DHT22;16786;49.466;11.068;2023-08-17T10:45:28;32.30;99.90
29917;DHT22;16786;49.466;11.068;2023-08-17T10:50:36;32.70;99.90
29917;DHT22;16786;49.466;11.068;2023-08-17T10:53:11;32.80;99.90
29917;DHT22;16786;49.466;11.068;2023-08-17T10:55:40;33.00;99.90
29917;DHT22;16786;49.466;11.068;2023-08-17T10:58:08;33.30;99.90
29917;DHT22;16786;49.466;11.068;2023-08-17T11:00:41;33.50;99.90
29917;DHT22;16786;49.466;11.068;2023-08-17T11:03:17;33.30;99.90
29917;DHT22;16786;49.466;11.068;2023-08-17T11:05:49;33.40;99.90
29917;DHT22;16786;49.466;11.068;2023-08-17T11:13:42;34.30;99.90
29917;DHT22;16786;49.466;11.068;2023-08-17T11:16:11;34.50;99.90
29917;DHT22;16786;49.466;11.068;2023-08-17T11:18:44;34.50;99.90
29917;DHT22;16786;49.466;11.068;2023-08-17T11:21:12;34.90;99.90
29917;DHT22;16786;49.466;11.068;2023-08-17T11:23:45;35.20;99.90
29917;DHT22;16786;49.466;11.068;2023-08-17T11:26:17;35.60;99.90
29917;DHT22;16786;49.466;11.068;2023-08-17T11:28:45;35.90;99.90
29917;DHT22;16786;49.466;11.068;2023-08-17T11:31:14;36.20;99.90
29917;DHT22;16786;49.466;11.068;2023-08-17T11:33:43;36.50;99.90
29917;DHT22;16786;49.466;11.068;2023-08-17T11:36:12;36.80;99.90
29917;DHT22;16786;49.466;11.068;2023-08-17T11:38:41;37.10;99.90
29917;DHT22;16786;49.466;11.068;2023-08-17T11:41:09;37.30;99.80
29917;DHT22;16786;49.466;11.068;2023-08-17T11:43:43;37.30;98.70
29917;DHT22;16786;49.466;11.068;2023-08-17T11:46:12;37.40;97.80
29917;DHT22;16786;49.466;11.068;2023-08-17T11:48:39;37.20;97.40
29917;DHT22;16786;49.466;11.068;2023-08-17T11:51:07;36.80;96.70
29917;DHT22;16786;49.466;11.068;2023-08-17T11:53:35;36.60;96.90
29917;DHT22;16786;49.466;11.068;2023-08-17T11:56:04;36.50;97.10
29917;DHT22;16786;49.466;11.068;2023-08-17T11:58:39;36.50;96.70
29917;DHT22;16786;49.466;11.068;2023-08-17T12:01:08;36.90;95.80
29917;DHT22;16786;49.466;11.068;2023-08-17T12:03:36;37.10;94.60
29917;DHT22;16786;49.466;11.068;2023-08-17T12:06:04;37.00;94.40
29917;DHT22;16786;49.466;11.068;2023-08-17T12:08:32;37.60;94.50
29917;DHT22;16786;49.466;11.068;2023-08-17T12:11:02;37.80;93.40
29917;DHT22;16786;49.466;11.068;2023-08-17T12:13:33;38.20;92.50
29917;DHT22;16786;49.466;11.068;2023-08-17T12:16:02;38.40;92.20
29917;DHT22;16786;49.466;11.068;2023-08-17T12:18:34;38.10;91.90
29917;DHT22;16786;49.466;11.068;2023-08-17T12:21:03;37.60;92.10
29917;DHT22;16786;49.466;11.068;2023-08-17T12:23:32;36.70;92.90
29917;DHT22;16786;49.466;11.068;2023-08-17T12:26:00;36.40;93.20
29917;DHT22;16786;49.466;11.068;2023-08-17T12:28:27;36.80;93.30
29917;DHT22;16786;49.466;11.068;2023-08-17T12:31:01;37.50;92.20
29917;DHT22;16786;49.466;11.068;2023-08-17T12:33:29;38.20;91.20
29917;DHT22;16786;49.466;11.068;2023-08-17T12:35:57;38.70;90.20
29917;DHT22;16786;49.466;11.068;2023-08-17T12:38:25;39.30;88.30
29917;DHT22;16786;49.466;11.068;2023-08-17T12:40:53;39.40;87.20
29917;DHT22;16786;49.466;11.068;2023-08-17T12:43:20;39.90;85.00
29917;DHT22;16786;49.466;11.068;2023-08-17T12:45:48;39.90;84.30
29917;DHT22;16786;49.466;11.068;2023-08-17T12:48:15;39.90;85.50
29917;DHT22;16786;49.466;11.068;2023-08-17T12:50:43;39.70;84.50
29917;DHT22;16786;49.466;11.068;2023-08-17T12:53:10;39.30;83.70
29917;DHT22;16786;49.466;11.068;2023-08-17T12:55:38;38.70;83.10
29917;DHT22;16786;49.466;11.068;2023-08-17T12:58:08;38.20;83.40
29917;DHT22;16786;49.466;11.068;2023-08-17T13:00:36;37.50;82.70
29917;DHT22;16786;49.466;11.068;2023-08-17T13:03:04;37.10;84.60
29917;DHT22;16786;49.466;11.068;2023-08-17T13:05:32;36.80;87.70
29917;DHT22;16786;49.466;11.068;2023-08-17T13:07:59;36.80;86.90
29917;DHT22;16786;49.466;11.068;2023-08-17T13:10:28;36.80;86.70
29917;DHT22;16786;49.466;11.068;2023-08-17T13:12:55;36.40;86.00
29917;DHT22;16786;49.466;11.068;2023-08-17T13:15:26;36.00;86.90
29917;DHT22;16786;49.466;11.068;2023-08-17T13:17:54;35.90;86.30
29917;DHT22;16786;49.466;11.068;2023-08-17T13:20:22;36.00;85.90
29917;DHT22;16786;49.466;11.068;2023-08-17T13:22:49;36.20;85.80
29917;DHT22;16786;49.466;11.068;2023-08-17T13:25:17;36.30;85.00
29917;DHT22;16786;49.466;11.068;2023-08-17T13:27:44;36.50;84.10
29917;DHT22;16786;49.466;11.068;2023-08-17T13:30:12;36.10;85.40
29917;DHT22;16786;49.466;11.068;2023-08-17T13:32:39;36.20;86.00
29917;DHT22;16786;49.466;11.068;2023-08-17T13:35:08;37.00;86.20
29917;DHT22;16786;49.466;11.068;2023-08-17T13:37:38;37.60;84.30
29917;DHT22;16786;49.466;11.068;2023-08-17T13:40:06;37.70;84.10
29917;DHT22;16786;49.466;11.068;2023-08-17T13:42:34;37.70;83.40
29917;DHT22;16786;49.466;11.068;2023-08-17T13:45:01;37.90;82.50
29917;DHT22;16786;49.466;11.068;2023-08-17T13:47:28;38.70;81.40
29917;DHT22;16786;49.466;11.068;2023-08-17T13:49:56;40.30;80.10
29917;DHT22;16786;49.466;11.068;2023-08-17T13:52:25;42.30;76.00
29917;DHT22;16786;49.466;11.068;2023-08-17T13:54:53;43.60;70.90
29917;DHT22;16786;49.466;11.068;2023-08-17T13:57:21;43.10;69.70
29917;DHT22;16786;49.466;11.068;2023-08-17T13:59:48;42.00;69.70
29917;DHT22;16786;49.466;11.068;2023-08-17T14:02:18;41.40;71.10
29917;DHT22;16786;49.466;11.068;2023-08-17T14:04:46;40.90;71.00
29917;DHT22;16786;49.466;11.068;2023-08-17T14:07:14;40.10;71.60
29917;DHT22;16786;49.466;11.068;2023-08-17T14:09:41;39.60;72.50
29917;DHT22;16786;49.466;11.068;2023-08-17T14:12:20;39.00;73.30
29917;DHT22;16786;49.466;11.068;2023-08-17T14:14:47;39.70;73.10
29917;DHT22;16786;49.466;11.068;2023-08-17T14:17:15;41.60;69.70
29917;DHT22;16786;49.466;11.068;2023-08-17T14:19:42;42.50;67.70
29917;DHT22;16786;49.466;11.068;2023-08-17T14:22:10;44.20;65.10
29917;DHT22;16786;49.466;11.068;2023-08-17T14:24:37;45.30;62.60
29917;DHT22;16786;49.466;11.068;2023-08-17T14:27:04;45.00;60.50
29917;DHT22;16786;49.466;11.068;2023-08-17T14:29:32;44.00;61.50
29917;DHT22;16786;49.466;11.068;2023-08-17T14:31:59;42.40;63.00
29917;DHT22;16786;49.466;11.068;2023-08-17T14:34:27;41.20;65.10
29917;DHT22;16786;49.466;11.068;2023-08-17T14:36:54;40.30;66.70
29917;DHT22;16786;49.466;11.068;2023-08-17T14:39:21;39.50;69.70
29917;DHT22;16786;49.466;11.068;2023-08-17T14:41:49;38.50;71.60
29917;DHT22;16786;49.466;11.068;2023-08-17T14:44:16;37.50;74.20
29917;DHT22;16786;49.466;11.068;2023-08-17T14:46:44;36.80;75.50
29917;DHT22;16786;49.466;11.068;2023-08-17T14:49:12;36.30;76.60
29917;DHT22;16786;49.466;11.068;2023-08-17T14:51:40;35.90;78.50
29917;DHT22;16786;49.466;11.068;2023-08-17T14:54:08;35.60;79.20
29917;DHT22;16786;49.466;11.068;2023-08-17T14:56:35;35.30;80.30
29917;DHT22;16786;49.466;11.068;2023-08-17T14:59:03;35.00;81.20
29917;DHT22;16786;49.466;11.068;2023-08-17T15:01:36;34.40;83.00
29917;DHT22;16786;49.466;11.068;2023-08-17T15:04:04;33.90;85.10
29917;DHT22;16786;49.466;11.068;2023-08-17T15:06:31;33.50;87.00
29917;DHT22;16786;49.466;11.068;2023-08-17T15:09:01;33.10;89.00
29917;DHT22;16786;49.466;11.068;2023-08-17T15:11:30;32.70;90.40
29917;DHT22;16786;49.466;11.068;2023-08-17T15:13:57;32.40;91.20
29917;DHT22;16786;49.466;11.068;2023-08-17T15:16:25;32.10;92.10
29917;DHT22;16786;49.466;11.068;2023-08-17T15:18:54;31.80;93.00
29917;DHT22;16786;49.466;11.068;2023-08-17T15:21:22;31.60;94.10
29917;DHT22;16786;49.466;11.068;2023-08-17T15:23:49;31.40;94.60
29917;DHT22;16786;49.466;11.068;2023-08-17T15:26:16;31.10;95.00
29917;DHT22;16786;49.466;11.068;2023-08-17T15:28:44;30.90;95.80
29917;DHT22;16786;49.466;11.068;2023-08-17T15:31:12;30.70;96.30
29917;DHT22;16786;49.466;11.068;2023-08-17T15:33:40;30.60;97.40